createdAt,value
2022-08-11T00:01:54.102Z,54.96
2022-08-11T00:05:07.715Z,54.47
2022-08-11T00:08:15.181Z,55.40
2022-08-11T00:11:26.997Z,54.89
2022-08-11T00:14:38.083Z,56.63
2022-08-11T00:17:47.054Z,55.58
2022-08-11T00:20:55.085Z,55.65
2022-08-11T00:24:06.092Z,56.09
2022-08-11T00:27:14.254Z,56.12
2022-08-11T00:30:24.011Z,55.54
2022-08-11T00:33:41.103Z,56.22
2022-08-11T00:36:55.984Z,56.14
2022-08-11T00:40:03.444Z,55.92
2022-08-11T00:43:21.058Z,56.33
2022-08-11T00:46:41.112Z,56.24
2022-08-11T00:50:03.045Z,56.26
2022-08-11T00:53:34.219Z,56.65
2022-08-11T00:57:36.726Z,56.66
2022-08-11T01:01:11.670Z,56.62
2022-08-11T01:04:55.877Z,56.93
2022-08-11T01:08:53.295Z,57.24
2022-08-11T01:12:44.029Z,57.49
2022-08-11T01:16:18.595Z,57.45
2022-08-11T01:20:45.867Z,57.88
2022-08-11T01:24:07.793Z,57.77
2022-08-11T01:27:27.369Z,58.01
2022-08-11T01:31:27.307Z,58.68
2022-08-11T01:35:15.979Z,58.44
2022-08-11T01:38:55.888Z,58.20
2022-08-11T01:43:16.784Z,58.80
2022-08-11T01:46:29.979Z,59.01
2022-08-11T01:50:09.877Z,59.08
2022-08-11T01:53:30.308Z,59.05
2022-08-11T01:56:45.544Z,59.60
2022-08-11T02:00:09.293Z,59.99
2022-08-11T02:03:22.072Z,60.01
2022-08-11T02:06:58.599Z,60.09
2022-08-11T02:10:36.625Z,60.29
2022-08-11T02:13:50.923Z,60.47
2022-08-11T02:17:14.719Z,61.20
2022-08-11T02:20:41.095Z,61.21
2022-08-11T02:24:06.943Z,61.25
2022-08-11T02:27:23.456Z,61.39
2022-08-11T02:30:35.624Z,61.49
2022-08-11T02:33:43.890Z,61.64
2022-08-11T02:37:06.398Z,61.63
2022-08-11T02:40:22.525Z,61.58
2022-08-11T02:43:38.201Z,61.88
2022-08-11T02:47:00.195Z,61.69
2022-08-11T02:50:21.069Z,62.03
2022-08-11T02:53:35.579Z,61.97
2022-08-11T02:56:52.487Z,62.16
2022-08-11T03:00:08.205Z,61.95
2022-08-11T03:03:26.482Z,62.56
2022-08-11T03:06:48.559Z,62.18
2022-08-11T03:09:59.391Z,62.00
2022-08-11T03:13:33.692Z,62.43
2022-08-11T03:16:49.752Z,62.93
2022-08-11T03:20:07.915Z,63.13
2022-08-11T03:23:27.512Z,62.15
2022-08-11T03:26:46.382Z,62.51
2022-08-11T03:30:07.959Z,62.38
2022-08-11T03:33:40.871Z,62.43
2022-08-11T03:37:34.576Z,62.81
2022-08-11T03:42:01.855Z,63.10
2022-08-11T03:45:03.404Z,62.71
2022-08-11T03:48:22.839Z,63.35
2022-08-11T03:51:44.832Z,63.58
2022-08-11T03:55:07.786Z,64.17
2022-08-11T03:58:46.839Z,64.00
2022-08-11T04:02:12.606Z,63.82
2022-08-11T04:05:48.214Z,64.30
2022-08-11T04:09:27.093Z,64.44
2022-08-11T04:13:13.223Z,64.40
2022-08-11T04:16:41.841Z,64.63
2022-08-11T04:20:22.809Z,64.42
2022-08-11T04:24:34.929Z,64.24
2022-08-11T04:28:03.305Z,64.15
2022-08-11T04:31:51.779Z,64.14
2022-08-11T04:35:47.344Z,63.53
2022-08-11T04:39:23.415Z,63.91
2022-08-11T04:43:23.998Z,63.66
2022-08-11T04:47:03.085Z,64.19
2022-08-11T04:51:03.245Z,64.16
2022-08-11T04:54:45.599Z,63.82
2022-08-11T04:58:33.700Z,63.18
2022-08-11T05:01:58.790Z,63.28
2022-08-11T05:05:35.733Z,63.67
2022-08-11T05:09:13.532Z,63.79
2022-08-11T05:12:45.284Z,63.30
2022-08-11T05:16:12.083Z,63.43
2022-08-11T05:19:44.219Z,63.31
2022-08-11T05:23:09.713Z,63.48
2022-08-11T05:26:47.207Z,63.55
2022-08-11T05:30:21.959Z,63.13
2022-08-11T05:33:52.368Z,63.23
2022-08-11T05:37:25.794Z,63.04
2022-08-11T05:40:51.479Z,61.93
2022-08-11T05:44:21.829Z,62.31
2022-08-11T05:47:46.873Z,62.19
2022-08-11T05:51:11.766Z,61.94
2022-08-11T05:54:39.162Z,61.41
2022-08-11T05:57:51.415Z,61.43
2022-08-11T06:00:59.469Z,61.58
2022-08-11T06:04:19.909Z,60.95
2022-08-11T06:07:47.219Z,61.00
2022-08-11T06:11:03.118Z,60.65
2022-08-11T06:14:10.974Z,60.55
2022-08-11T06:17:25.322Z,60.17
2022-08-11T06:20:37.745Z,59.84
2022-08-11T06:23:46.548Z,60.10
2022-08-11T06:27:11.814Z,59.89
2022-08-11T06:30:19.670Z,59.50
2022-08-11T06:33:39.867Z,59.37
2022-08-11T06:36:59.110Z,59.02
2022-08-11T06:40:10.545Z,58.82
2022-08-11T06:43:23.711Z,58.79
2022-08-11T06:46:33.892Z,58.76
2022-08-11T06:50:03.319Z,58.67
2022-08-11T06:53:13.645Z,58.58
2022-08-11T06:56:43.954Z,58.84
2022-08-11T07:00:07.485Z,59.19
2022-08-11T07:03:19.342Z,58.99
2022-08-11T07:06:41.737Z,58.63
2022-08-11T07:10:51.403Z,58.41
2022-08-11T07:14:38.199Z,58.24
2022-08-11T07:18:10.237Z,58.03
2022-08-11T07:22:01.279Z,57.43
2022-08-11T07:25:22.166Z,57.43
2022-08-11T07:28:48.601Z,57.06
2022-08-11T07:32:03.664Z,55.80
2022-08-11T07:35:14.217Z,54.92
2022-08-11T07:38:43.416Z,54.90
2022-08-11T07:41:57.401Z,54.89
2022-08-11T07:45:25.175Z,54.66
2022-08-11T07:48:47.634Z,53.72
2022-08-11T07:52:12.112Z,53.22
2022-08-11T07:55:20.423Z,52.87
2022-08-11T07:59:07.463Z,53.31
2022-08-11T08:02:33.184Z,53.09
2022-08-11T08:05:56.820Z,53.38
2022-08-11T08:09:19.020Z,53.19
2022-08-11T08:12:44.140Z,53.35
2022-08-11T08:16:06.466Z,53.04
2022-08-11T08:19:19.320Z,52.70
2022-08-11T08:22:38.040Z,52.50
2022-08-11T08:25:48.721Z,52.43
2022-08-11T08:28:55.419Z,51.27
2022-08-11T08:32:03.510Z,51.29
2022-08-11T08:35:14.645Z,50.70
2022-08-11T08:38:22.806Z,50.00
2022-08-11T08:41:32.708Z,50.00
2022-08-11T08:44:44.908Z,49.82
2022-08-11T08:47:58.235Z,49.55
2022-08-11T08:52:02.594Z,50.07
2022-08-11T08:54:59.393Z,50.11
2022-08-11T08:58:06.668Z,49.51
2022-08-11T09:01:14.745Z,48.79
2022-08-11T09:04:23.025Z,49.40
2022-08-11T09:07:39.393Z,47.61
2022-08-11T09:11:13.750Z,47.93
2022-08-11T09:14:21.192Z,47.47
2022-08-11T09:17:30.135Z,48.03
2022-08-11T09:20:39.426Z,47.70
2022-08-11T09:24:08.425Z,47.16
2022-08-11T09:27:18.485Z,46.84
2022-08-11T09:30:27.633Z,46.77
2022-08-11T09:33:36.470Z,47.11
2022-08-11T09:37:03.026Z,46.65
2022-08-11T09:40:34.871Z,46.15
2022-08-11T09:44:04.260Z,45.89
2022-08-11T09:47:15.902Z,45.13
2022-08-11T09:50:23.149Z,46.30
2022-08-11T09:53:36.756Z,46.39
2022-08-11T09:57:06.774Z,46.32
2022-08-11T10:00:16.226Z,46.54
2022-08-11T10:03:38.249Z,45.92
2022-08-11T10:07:10.049Z,45.97
2022-08-11T10:10:17.265Z,45.42
2022-08-11T10:14:12.424Z,44.22
2022-08-11T10:16:59.325Z,44.60
2022-08-11T10:20:09.641Z,44.44
2022-08-11T10:24:00.417Z,44.17
2022-08-11T10:27:08.688Z,44.30
2022-08-11T10:30:37.172Z,44.34
2022-08-11T10:34:04.436Z,43.88
2022-08-11T10:37:14.968Z,43.58
2022-08-11T10:40:24.757Z,43.60
2022-08-11T10:44:01.258Z,44.02
2022-08-11T10:47:14.074Z,43.19
2022-08-11T10:50:36.486Z,43.61
2022-08-11T10:54:01.213Z,43.30
2022-08-11T10:57:24.420Z,41.13
2022-08-11T11:00:31.433Z,42.42
2022-08-11T11:03:41.935Z,42.66
2022-08-11T11:06:55.139Z,42.21
2022-08-11T11:10:06.877Z,42.27
2022-08-11T11:13:28.889Z,42.67
2022-08-11T11:16:52.319Z,42.13
2022-08-11T11:20:03.363Z,41.82
2022-08-11T11:23:16.929Z,42.04
2022-08-11T11:26:41.645Z,42.49
2022-08-11T11:30:00.152Z,42.21
2022-08-11T11:33:14.746Z,42.35
2022-08-11T11:36:32.422Z,41.97
2022-08-11T11:39:39.888Z,42.55
2022-08-11T11:42:48.957Z,42.12
2022-08-11T11:45:55.681Z,40.59
2022-08-11T11:49:15.312Z,41.74
2022-08-11T11:52:27.439Z,40.79
2022-08-11T11:55:35.362Z,40.64
2022-08-11T11:58:59.148Z,40.22
2022-08-11T12:02:11.897Z,40.56
2022-08-11T12:05:18.839Z,40.66
2022-08-11T12:08:30.055Z,40.97
2022-08-11T12:11:51.930Z,40.45
2022-08-11T12:14:59.307Z,39.90
2022-08-11T12:18:08.084Z,40.61
2022-08-11T12:21:18.640Z,41.10
2022-08-11T12:24:43.503Z,41.25
2022-08-11T12:27:50.763Z,41.70
2022-08-11T12:30:57.725Z,41.39
2022-08-11T12:34:06.528Z,41.05
2022-08-11T12:37:14.119Z,40.10
2022-08-11T12:41:11.858Z,40.00
2022-08-11T12:44:37.225Z,39.93
2022-08-11T12:48:07.643Z,39.80
2022-08-11T12:52:11.160Z,38.96
2022-08-11T12:55:35.525Z,38.99
2022-08-11T12:58:43.326Z,39.30
2022-08-11T13:02:06.236Z,38.78
2022-08-11T13:05:17.139Z,38.65
2022-08-11T13:08:26.375Z,39.83
2022-08-11T13:11:56.020Z,39.83
2022-08-11T13:15:08.147Z,40.35
2022-08-11T13:18:18.311Z,39.60
2022-08-11T13:21:26.329Z,39.77
2022-08-11T13:24:34.374Z,40.21
2022-08-11T13:27:41.650Z,40.03
2022-08-11T13:31:07.971Z,39.13
2022-08-11T13:34:15.556Z,38.32
2022-08-11T13:38:18.410Z,37.52
2022-08-11T13:40:55.956Z,37.83
2022-08-11T13:44:03.586Z,39.16
2022-08-11T14:04:28.915Z,47.66
2022-08-11T14:07:08.406Z,51.92
2022-08-11T14:10:16.211Z,54.66
2022-08-11T14:13:42.215Z,56.42
2022-08-11T14:16:55.653Z,57.77
2022-08-11T14:20:38.738Z,58.63
2022-08-11T14:23:36.128Z,58.29
2022-08-11T14:26:45.494Z,58.40
2022-08-11T14:29:51.500Z,58.78
2022-08-11T14:33:00.378Z,58.87
2022-08-11T14:36:27.066Z,59.32
2022-08-11T14:39:41.527Z,59.19
2022-08-11T14:43:03.859Z,60.78
2022-08-11T14:46:26.956Z,61.88
2022-08-11T14:49:35.147Z,61.21
2022-08-11T14:52:51.419Z,61.83
2022-08-11T14:56:13.819Z,62.58
2022-08-11T14:59:20.883Z,62.15
2022-08-11T15:02:43.044Z,61.41
2022-08-11T15:05:56.177Z,61.04
2022-08-11T15:09:09.264Z,60.79
2022-08-11T15:12:33.305Z,60.56
2022-08-11T15:15:55.921Z,60.51
2022-08-11T15:19:03.382Z,60.20
2022-08-11T15:22:28.083Z,60.39
2022-08-11T15:25:39.193Z,61.27
2022-08-11T15:29:09.562Z,60.75
2022-08-11T15:32:33.462Z,60.13
2022-08-11T15:35:56.891Z,59.63
2022-08-11T15:39:07.624Z,58.57
2022-08-11T15:42:36.453Z,57.73
2022-08-11T15:45:51.070Z,56.10
2022-08-11T15:49:03.084Z,56.97
2022-08-11T15:52:13.251Z,56.32
2022-08-11T15:55:20.828Z,56.24
2022-08-11T15:59:10.610Z,55.21
2022-08-11T16:02:36.159Z,53.14
2022-08-11T16:05:45.651Z,53.88
2022-08-11T16:08:56.646Z,52.49
2022-08-11T16:12:06.366Z,49.94
2022-08-11T16:15:31.212Z,48.08
2022-08-11T16:18:44.688Z,46.91
2022-08-11T16:21:54.713Z,45.46
2022-08-11T16:27:04.428Z,45.31
2022-08-11T16:28:32.723Z,44.78
2022-08-11T16:32:05.069Z,44.41
2022-08-11T16:35:29.901Z,44.00
2022-08-11T16:38:40.273Z,43.73
2022-08-11T16:42:03.462Z,43.45
2022-08-11T16:45:26.137Z,43.46
2022-08-11T16:48:38.758Z,42.64
2022-08-11T16:51:45.997Z,43.06
2022-08-11T16:54:53.024Z,42.59
2022-08-11T16:58:17.346Z,42.50
2022-08-11T17:01:26.009Z,42.08
2022-08-11T17:04:58.466Z,43.01
2022-08-11T17:08:22.809Z,44.69
2022-08-11T17:11:50.337Z,45.46
2022-08-11T17:15:00.621Z,46.13
2022-08-11T17:18:10.582Z,47.04
2022-08-11T17:21:23.189Z,48.11
2022-08-11T17:24:28.294Z,48.48
2022-08-11T17:27:36.559Z,49.12
2022-08-11T17:31:01.274Z,49.37
2022-08-11T17:34:25.210Z,49.70
2022-08-11T17:37:37.409Z,50.19
2022-08-11T17:41:09.045Z,50.86
2022-08-11T17:44:32.953Z,51.92
2022-08-11T17:47:55.320Z,52.78
2022-08-11T17:51:06.195Z,53.08
2022-08-11T17:54:31.127Z,53.68
2022-08-11T17:57:55.053Z,53.21
2022-08-11T18:01:08.690Z,53.64
2022-08-11T18:04:19.081Z,53.42
2022-08-11T18:07:42.717Z,53.86
2022-08-11T18:11:08.810Z,55.51
2022-08-11T18:14:33.266Z,56.61
2022-08-11T18:17:56.616Z,57.11
2022-08-11T18:21:18.497Z,58.22
2022-08-11T18:24:44.185Z,59.30
2022-08-11T18:28:13.266Z,60.64
2022-08-11T18:31:37.188Z,61.92
2022-08-11T18:35:00.715Z,62.25
2022-08-11T18:38:27.940Z,62.63
2022-08-11T18:41:57.555Z,63.66
2022-08-11T18:45:27.958Z,63.05
2022-08-11T18:48:55.285Z,62.10
2022-08-11T18:52:18.979Z,64.14
2022-08-11T18:55:42.449Z,64.70
2022-08-11T18:59:06.817Z,63.47
2022-08-11T19:02:33.554Z,62.84
2022-08-11T19:06:39.945Z,62.57
2022-08-11T19:09:58.980Z,62.11
2022-08-11T19:13:23.228Z,61.82
2022-08-11T19:16:46.148Z,61.95
2022-08-11T19:20:14.323Z,62.06
2022-08-11T19:23:39.849Z,61.59
2022-08-11T19:27:03.590Z,61.61
2022-08-11T19:30:26.085Z,61.43
2022-08-11T19:34:02.890Z,61.39
2022-08-11T19:37:35.701Z,61.74
2022-08-11T19:41:07.492Z,62.07
2022-08-11T19:44:31.145Z,62.41
2022-08-11T19:48:14.101Z,61.68
2022-08-11T19:51:39.184Z,61.95
2022-08-11T19:55:05.120Z,62.10
2022-08-11T19:58:27.197Z,62.41
2022-08-11T20:02:01.394Z,62.45
2022-08-11T20:05:32.103Z,62.46
2022-08-11T20:08:58.811Z,63.13
2022-08-11T20:12:24.715Z,63.71
2022-08-11T20:15:47.976Z,64.08
2022-08-11T20:19:11.588Z,64.66
2022-08-11T20:22:35.876Z,64.68
2022-08-11T20:26:13.998Z,64.82
2022-08-11T20:29:44.494Z,64.31
2022-08-11T20:33:08.813Z,64.74
2022-08-11T20:36:34.479Z,64.76
2022-08-11T20:39:58.096Z,65.10
2022-08-11T20:44:05.677Z,65.15
2022-08-11T20:47:13.160Z,65.55
2022-08-11T20:50:37.234Z,65.77
2022-08-11T20:54:05.698Z,65.91
2022-08-11T20:57:54.401Z,65.85
2022-08-11T21:01:20.559Z,66.16
2022-08-11T21:05:00.206Z,66.24
2022-08-11T21:08:25.952Z,66.48
2022-08-11T21:11:49.857Z,66.42
2022-08-11T21:15:15.697Z,66.63
2022-08-11T21:18:59.617Z,66.80
2022-08-11T21:22:31.013Z,67.33
2022-08-11T21:25:59.367Z,67.48
2022-08-11T21:29:26.104Z,67.40
2022-08-11T21:32:50.531Z,67.56
2022-08-11T21:36:12.974Z,67.93
2022-08-11T21:39:41.322Z,67.96
2022-08-11T21:43:05.873Z,68.21
2022-08-11T21:46:29.418Z,68.00
2022-08-11T21:49:58.504Z,68.05
2022-08-11T21:53:21.399Z,68.22
2022-08-11T21:56:47.296Z,68.31
2022-08-11T22:00:12.180Z,68.38
2022-08-11T22:03:41.129Z,68.61
2022-08-11T22:07:14.216Z,68.84
2022-08-11T22:10:42.125Z,69.00
2022-08-11T22:14:08.390Z,69.07
2022-08-11T22:17:29.916Z,69.28
2022-08-11T22:20:53.690Z,69.46
2022-08-11T22:24:18.393Z,69.32
2022-08-11T22:27:53.632Z,69.08
2022-08-11T22:31:21.953Z,69.47
2022-08-11T22:34:52.559Z,69.62
2022-08-11T22:38:17.692Z,69.67
2022-08-11T22:41:40.654Z,69.81
2022-08-11T22:45:03.333Z,70.01
2022-08-11T22:48:29.683Z,70.15
2022-08-11T22:51:53.649Z,70.41
2022-08-11T22:55:18.029Z,70.62
2022-08-11T22:58:41.149Z,70.75
2022-08-11T23:02:04.211Z,70.60
2022-08-11T23:05:29.569Z,70.37
2022-08-11T23:08:52.895Z,69.90
2022-08-11T23:12:14.463Z,70.45
2022-08-11T23:15:37.526Z,70.40
2022-08-11T23:19:03.062Z,70.37
2022-08-11T23:22:49.625Z,70.46
2022-08-11T23:26:13.364Z,70.89
2022-08-11T23:29:37.516Z,71.23
2022-08-11T23:33:03.598Z,71.55
2022-08-11T23:36:46.740Z,71.09
2022-08-11T23:40:10.843Z,70.63
2022-08-11T23:43:39.058Z,70.70
2022-08-11T23:47:03.094Z,70.37
2022-08-11T23:50:27.238Z,70.99
2022-08-11T23:53:49.234Z,71.55
2022-08-11T23:57:14.475Z,71.54
